createdAt,value
2023-01-08T00:01:31.381Z,100724.60
2023-01-08T00:03:59.874Z,100717.80
2023-01-08T00:06:29.097Z,100716.80
2023-01-08T00:08:57.122Z,100706.20
2023-01-08T00:11:25.230Z,100700.00
2023-01-08T00:13:53.272Z,100704.00
2023-01-08T00:16:21.281Z,100709.20
2023-01-08T00:18:49.371Z,100700.20
2023-01-08T00:21:17.491Z,100693.60
2023-01-08T00:23:45.378Z,100690.80
2023-01-08T00:26:14.238Z,100693.00
2023-01-08T00:28:42.573Z,100690.80
2023-01-08T00:31:13.388Z,100691.20
2023-01-08T00:33:42.002Z,100692.00
2023-01-08T00:36:16.943Z,100696.60
2023-01-08T00:38:46.696Z,100700.00
2023-01-08T00:41:16.421Z,100693.20
2023-01-08T00:43:44.351Z,100692.00
2023-01-08T00:46:12.294Z,100688.00
2023-01-08T00:48:40.260Z,100696.20
2023-01-08T00:51:09.534Z,100691.80
2023-01-08T00:53:40.685Z,100690.60
2023-01-08T00:56:10.797Z,100688.80
2023-01-08T00:58:39.157Z,100684.00
2023-01-08T01:01:15.338Z,100689.60
2023-01-08T01:03:43.948Z,100689.40
2023-01-08T01:06:14.277Z,100683.80
2023-01-08T01:08:44.491Z,100685.40
2023-01-08T01:11:26.836Z,100678.40
2023-01-08T01:13:57.009Z,100677.00
2023-01-08T01:16:26.312Z,100671.40
2023-01-08T01:18:55.611Z,100670.80
2023-01-08T01:21:30.948Z,100666.20
2023-01-08T01:24:06.063Z,100663.00
2023-01-08T01:26:34.877Z,100661.80
2023-01-08T01:29:03.179Z,100657.40
2023-01-08T01:31:32.413Z,100653.20
2023-01-08T01:34:00.714Z,100648.40
2023-01-08T01:36:28.641Z,100644.00
2023-01-08T01:38:58.149Z,100638.40
2023-01-08T01:41:45.781Z,100628.40
2023-01-08T01:44:45.966Z,100616.00
2023-01-08T01:47:26.075Z,100617.80
2023-01-08T01:50:26.424Z,100614.80
2023-01-08T01:52:56.871Z,100612.60
2023-01-08T01:55:27.448Z,100604.00
2023-01-08T01:58:14.722Z,100606.80
2023-01-08T02:00:44.446Z,100607.20
2023-01-08T02:03:15.182Z,100607.00
2023-01-08T02:06:31.212Z,100607.40
2023-01-08T02:09:23.496Z,100609.00
2023-01-08T02:12:26.109Z,100605.60
2023-01-08T02:15:48.263Z,100605.80
2023-01-08T02:18:48.410Z,100617.60
2023-01-08T02:22:02.975Z,100612.20
2023-01-08T02:24:44.662Z,100613.60
2023-01-08T02:27:14.563Z,100609.20
2023-01-08T02:29:43.077Z,100609.80
2023-01-08T02:32:11.816Z,100607.00
2023-01-08T02:34:39.639Z,100601.80
2023-01-08T02:37:10.188Z,100601.80
2023-01-08T02:39:43.956Z,100595.60
2023-01-08T02:42:20.823Z,100582.40
2023-01-08T02:45:25.391Z,100586.20
2023-01-08T02:48:05.462Z,100579.40
2023-01-08T02:50:57.440Z,100570.40
2023-01-08T02:53:34.214Z,100573.20
2023-01-08T02:56:10.165Z,100574.60
2023-01-08T02:58:40.581Z,100575.20
2023-01-08T03:01:12.989Z,100572.80
2023-01-08T03:03:47.107Z,100572.00
2023-01-08T03:06:19.702Z,100571.40
2023-01-08T03:08:52.839Z,100567.60
2023-01-08T03:11:24.744Z,100562.20
2023-01-08T03:14:20.337Z,100563.40
2023-01-08T03:16:55.790Z,100564.20
2023-01-08T03:19:33.154Z,100562.00
2023-01-08T03:22:07.131Z,100565.00
2023-01-08T03:24:38.424Z,100566.80
2023-01-08T03:27:13.380Z,100563.60
2023-01-08T03:29:41.677Z,100561.00
2023-01-08T03:32:16.485Z,100561.80
2023-01-08T03:34:48.472Z,100555.40
2023-01-08T03:37:26.296Z,100554.40
2023-01-08T03:40:25.931Z,100554.60
2023-01-08T03:42:53.833Z,100559.00
2023-01-08T03:45:24.346Z,100554.40
2023-01-08T03:47:54.876Z,100551.40
2023-01-08T03:50:27.373Z,100554.40
2023-01-08T03:52:55.379Z,100551.60
2023-01-08T03:55:23.258Z,100551.60
2023-01-08T03:57:51.111Z,100552.60
2023-01-08T04:00:19.349Z,100547.20
2023-01-08T04:02:47.443Z,100550.00
2023-01-08T04:05:15.632Z,100554.20
2023-01-08T04:07:43.597Z,100560.20
2023-01-08T04:10:11.706Z,100554.80
2023-01-08T04:12:43.486Z,100550.40
2023-01-08T04:15:11.815Z,100541.60
2023-01-08T04:17:39.727Z,100545.20
2023-01-08T04:20:09.579Z,100536.80
2023-01-08T04:22:37.604Z,100530.80
2023-01-08T04:25:05.923Z,100526.20
2023-01-08T04:27:33.860Z,100530.20
2023-01-08T04:30:01.717Z,100532.40
2023-01-08T04:32:29.704Z,100535.40
2023-01-08T04:34:57.550Z,100534.80
2023-01-08T04:37:25.391Z,100529.00
2023-01-08T04:39:53.370Z,100523.60
2023-01-08T04:42:21.335Z,100525.80
2023-01-08T04:44:49.168Z,100523.20
2023-01-08T04:47:17.098Z,100515.40
2023-01-08T04:49:44.967Z,100511.80
2023-01-08T04:52:12.836Z,100510.20
2023-01-08T04:54:40.638Z,100505.80
2023-01-08T04:57:08.568Z,100496.40
2023-01-08T04:59:36.435Z,100488.80
2023-01-08T05:02:04.976Z,100497.00
2023-01-08T05:04:33.100Z,100507.60
2023-01-08T05:07:01.032Z,100512.20
2023-01-08T05:09:28.974Z,100507.60
2023-01-08T05:11:56.908Z,100506.20
2023-01-08T05:14:24.833Z,100482.80
2023-01-08T05:16:52.761Z,100478.00
2023-01-08T05:19:20.588Z,100465.40
2023-01-08T05:21:48.470Z,100449.40
2023-01-08T05:24:16.601Z,100436.60
2023-01-08T05:26:44.473Z,100440.40
2023-01-08T05:29:12.471Z,100444.20
2023-01-08T05:31:40.395Z,100450.60
2023-01-08T05:34:08.331Z,100451.60
2023-01-08T05:36:36.199Z,100460.20
2023-01-08T05:39:04.592Z,100450.40
2023-01-08T05:41:32.420Z,100440.20
2023-01-08T05:44:00.917Z,100430.80
2023-01-08T05:46:28.788Z,100420.20
2023-01-08T05:48:57.948Z,100419.40
2023-01-08T05:51:25.905Z,100406.20
2023-01-08T05:53:53.892Z,100396.00
2023-01-08T05:56:21.981Z,100390.00
2023-01-08T05:58:49.933Z,100384.20
2023-01-08T06:01:18.045Z,100387.60
2023-01-08T06:03:46.027Z,100394.60
2023-01-08T06:06:14.043Z,100400.80
2023-01-08T06:08:41.943Z,100400.40
2023-01-08T06:11:12.146Z,100402.40
2023-01-08T06:13:44.046Z,100397.20
2023-01-08T06:16:13.183Z,100384.60
2023-01-08T06:18:41.095Z,100377.40
2023-01-08T06:21:09.431Z,100368.40
2023-01-08T06:23:37.305Z,100357.40
2023-01-08T06:26:05.574Z,100357.00
2023-01-08T06:28:33.583Z,100354.00
2023-01-08T06:31:03.424Z,100353.40
2023-01-08T06:33:32.696Z,100366.20
2023-01-08T06:36:05.561Z,100367.00
2023-01-08T06:38:35.637Z,100362.40
2023-01-08T06:41:10.252Z,100368.40
2023-01-08T06:43:39.450Z,100352.40
2023-01-08T06:46:09.665Z,100356.40
2023-01-08T06:48:38.323Z,100354.80
2023-01-08T06:51:07.323Z,100354.80
2023-01-08T06:53:35.154Z,100355.00
2023-01-08T06:56:04.629Z,100355.80
2023-01-08T06:58:32.647Z,100360.00
2023-01-08T07:01:00.750Z,100364.40
2023-01-08T07:03:28.934Z,100372.60
2023-01-08T07:05:57.889Z,100365.20
2023-01-08T07:08:25.765Z,100367.20
2023-01-08T07:10:54.320Z,100366.00
2023-01-08T07:13:24.031Z,100369.80
2023-01-08T07:15:52.037Z,100367.80
2023-01-08T07:18:20.038Z,100366.60
2023-01-08T07:20:51.822Z,100370.20
2023-01-08T07:23:19.601Z,100359.60
2023-01-08T07:25:47.641Z,100357.60
2023-01-08T07:28:16.086Z,100345.60
2023-01-08T07:30:44.900Z,100351.60
2023-01-08T07:33:12.843Z,100347.40
2023-01-08T07:35:40.920Z,100349.00
2023-01-08T07:38:08.884Z,100359.40
2023-01-08T07:40:39.163Z,100360.60
2023-01-08T07:43:07.443Z,100360.00
2023-01-08T07:45:35.817Z,100362.00
2023-01-08T07:48:05.052Z,100359.60
2023-01-08T07:50:33.337Z,100356.60
2023-01-08T07:53:02.612Z,100350.80
2023-01-08T07:55:31.842Z,100355.40
2023-01-08T07:57:59.798Z,100353.80
2023-01-08T08:00:27.814Z,100360.00
2023-01-08T08:02:55.920Z,100359.60
2023-01-08T08:05:24.149Z,100360.40
2023-01-08T08:07:52.061Z,100352.20
2023-01-08T08:10:19.910Z,100348.00
2023-01-08T08:12:47.850Z,100349.20
2023-01-08T08:15:15.818Z,100350.60
2023-01-08T08:17:48.754Z,100355.00
2023-01-08T08:20:19.831Z,100346.80
2023-01-08T08:22:47.666Z,100349.40
2023-01-08T08:25:15.611Z,100343.40
2023-01-08T08:27:44.976Z,100348.80
2023-01-08T08:30:13.915Z,100345.40
2023-01-08T08:32:41.847Z,100334.80
2023-01-08T08:35:10.076Z,100319.60
2023-01-08T08:37:38.165Z,100310.40
2023-01-08T08:40:07.075Z,100317.40
2023-01-08T08:42:34.985Z,100321.20
2023-01-08T08:45:03.042Z,100320.60
2023-01-08T08:47:30.932Z,100319.00
2023-01-08T08:49:58.795Z,100324.40
2023-01-08T08:52:26.665Z,100312.20
2023-01-08T08:54:54.530Z,100302.40
2023-01-08T08:57:25.923Z,100306.60
2023-01-08T08:59:54.330Z,100296.60
2023-01-08T09:02:22.428Z,100293.00
2023-01-08T09:04:50.603Z,100287.40
2023-01-08T09:07:19.155Z,100296.20
2023-01-08T09:09:47.076Z,100297.40
2023-01-08T09:12:14.897Z,100299.20
2023-01-08T09:14:42.900Z,100290.80
2023-01-08T09:17:10.907Z,100293.20
2023-01-08T09:19:39.030Z,100301.80
2023-01-08T09:22:06.911Z,100286.00
2023-01-08T09:24:38.868Z,100288.40
2023-01-08T09:27:07.733Z,100294.80
2023-01-08T09:29:36.375Z,100298.20
2023-01-08T09:32:07.383Z,100288.40
2023-01-08T09:34:38.653Z,100288.20
2023-01-08T09:37:07.246Z,100290.40
2023-01-08T09:39:36.922Z,100285.60
2023-01-08T09:42:06.956Z,100281.20
2023-01-08T09:44:40.416Z,100276.40
2023-01-08T09:47:26.917Z,100271.00
2023-01-08T09:50:02.505Z,100264.80
2023-01-08T09:52:32.131Z,100265.20
2023-01-08T09:55:01.403Z,100268.80
2023-01-08T09:57:29.958Z,100264.60
2023-01-08T09:59:58.766Z,100255.00
2023-01-08T10:02:29.055Z,100251.60
2023-01-08T10:05:00.843Z,100254.20
2023-01-08T10:07:30.723Z,100246.60
2023-01-08T10:09:58.605Z,100247.60
2023-01-08T10:12:33.004Z,100242.40
2023-01-08T10:15:05.097Z,100243.40
2023-01-08T10:17:47.189Z,100240.40
2023-01-08T10:20:22.538Z,100238.60
2023-01-08T10:22:54.409Z,100241.60
2023-01-08T10:25:26.479Z,100239.40
2023-01-08T10:27:59.953Z,100241.20
2023-01-08T10:30:30.736Z,100234.00
2023-01-08T10:33:20.347Z,100225.60
2023-01-08T10:36:00.710Z,100227.40
2023-01-08T10:38:34.455Z,100226.20
2023-01-08T10:41:07.206Z,100218.20
2023-01-08T10:44:01.605Z,100208.20
2023-01-08T10:46:54.823Z,100204.20
2023-01-08T10:49:42.120Z,100202.60
2023-01-08T10:52:33.278Z,100200.60
2023-01-08T10:55:23.417Z,100185.80
2023-01-08T10:58:00.129Z,100189.80
2023-01-08T11:00:35.728Z,100184.00
2023-01-08T11:03:18.932Z,100174.60
2023-01-08T11:05:47.527Z,100181.60
2023-01-08T11:08:22.776Z,100167.40
2023-01-08T11:10:57.426Z,100172.20
2023-01-08T11:13:27.360Z,100168.40
2023-01-08T11:16:10.802Z,100162.40
2023-01-08T11:18:51.018Z,100161.60
2023-01-08T11:21:25.130Z,100168.80
2023-01-08T11:24:18.716Z,100170.00
2023-01-08T11:26:57.348Z,100156.00
2023-01-08T11:29:46.535Z,100161.80
2023-01-08T11:32:42.237Z,100158.40
2023-01-08T11:35:36.477Z,100158.00
2023-01-08T11:38:08.314Z,100156.40
2023-01-08T11:41:03.838Z,100152.40
2023-01-08T11:44:38.729Z,100153.00
2023-01-08T11:47:44.672Z,100148.00
2023-01-08T11:51:24.060Z,100142.80
2023-01-08T11:54:48.495Z,100137.20
2023-01-08T11:57:47.661Z,100144.80
2023-01-08T12:00:46.215Z,100133.60
2023-01-08T12:03:26.370Z,100121.80
2023-01-08T12:06:23.321Z,100114.20
2023-01-08T12:09:04.486Z,100106.60
2023-01-08T12:11:54.675Z,100103.40
2023-01-08T12:14:56.095Z,100097.20
2023-01-08T12:17:58.462Z,100095.40
2023-01-08T12:20:32.357Z,100095.60
2023-01-08T12:23:45.028Z,100101.20
2023-01-08T12:26:21.720Z,100104.40
2023-01-08T12:29:20.253Z,100093.80
2023-01-08T12:32:13.075Z,100081.60
2023-01-08T12:34:53.640Z,100079.60
2023-01-08T12:37:44.504Z,100082.40
2023-01-08T12:40:20.620Z,100067.00
2023-01-08T12:42:59.896Z,100066.40
2023-01-08T12:45:40.725Z,100069.00
2023-01-08T12:48:16.003Z,100068.80
2023-01-08T12:51:08.492Z,100058.60
2023-01-08T12:54:07.771Z,100057.40
2023-01-08T12:57:07.361Z,100047.40
2023-01-08T13:00:17.094Z,100046.40
2023-01-08T13:02:47.726Z,100040.40
2023-01-08T13:05:18.757Z,100036.20
2023-01-08T13:07:52.718Z,100032.40
2023-01-08T13:10:40.234Z,100020.40
2023-01-08T13:13:33.189Z,100023.60
2023-01-08T13:16:11.324Z,100023.60
2023-01-08T13:18:40.100Z,100022.80
2023-01-08T13:21:12.849Z,100014.00
2023-01-08T13:23:40.776Z,100007.60
2023-01-08T13:26:08.748Z,100008.20
2023-01-08T13:28:46.222Z,100010.00
2023-01-08T13:31:20.099Z,100013.00
2023-01-08T13:33:52.796Z,100018.40
2023-01-08T13:36:28.583Z,100005.00
2023-01-08T13:39:11.881Z,100005.40
2023-01-08T13:41:57.217Z,100013.20
2023-01-08T13:44:42.535Z,100016.20
2023-01-08T13:47:43.295Z,100003.60
2023-01-08T13:50:24.303Z,99998.60
2023-01-08T13:53:05.804Z,99993.40
2023-01-08T13:55:40.342Z,99988.00
2023-01-08T13:58:53.235Z,99994.60
2023-01-08T14:01:23.738Z,99989.20
2023-01-08T14:03:51.821Z,99974.20
2023-01-08T14:06:34.984Z,99968.40
2023-01-08T14:09:05.567Z,99978.00
2023-01-08T14:11:45.409Z,99975.80
2023-01-08T14:14:20.404Z,99970.40
2023-01-08T14:16:52.406Z,99947.80
2023-01-08T14:19:24.626Z,99918.00
2023-01-08T14:21:57.781Z,99964.40
2023-01-08T14:24:26.776Z,99983.40
2023-01-08T14:27:00.589Z,99968.60
2023-01-08T14:29:30.966Z,99971.00
2023-01-08T14:32:01.314Z,99961.60
2023-01-08T14:34:32.379Z,99953.80
2023-01-08T14:37:00.264Z,99969.00
2023-01-08T14:39:38.597Z,99971.20
2023-01-08T14:42:31.885Z,99943.40
2023-01-08T14:45:23.076Z,99943.60
2023-01-08T14:47:56.728Z,99944.40
2023-01-08T14:50:33.044Z,99933.60
2023-01-08T14:53:08.066Z,99936.80
2023-01-08T14:55:44.747Z,99933.00
2023-01-08T14:58:20.406Z,99946.80
2023-01-08T15:00:56.571Z,99944.80
2023-01-08T15:03:46.993Z,99947.60
2023-01-08T15:06:32.942Z,99942.20
2023-01-08T15:09:01.140Z,99947.40
2023-01-08T15:11:32.301Z,99937.00
2023-01-08T15:14:00.585Z,99941.40
2023-01-08T15:16:56.458Z,99946.00
2023-01-08T15:19:28.631Z,99939.80
2023-01-08T15:22:00.414Z,99943.20
2023-01-08T15:24:36.656Z,99943.40
2023-01-08T15:27:12.066Z,99938.40
2023-01-08T15:29:52.686Z,99937.00
2023-01-08T15:32:27.457Z,99934.40
2023-01-08T15:34:55.496Z,99943.20
2023-01-08T15:37:23.458Z,99945.40
2023-01-08T15:39:51.533Z,99930.40
2023-01-08T15:42:46.280Z,99931.40
2023-01-08T15:45:29.654Z,99938.60
2023-01-08T15:47:58.550Z,99940.00
2023-01-08T15:50:28.975Z,99940.80
2023-01-08T15:52:57.626Z,99939.20
2023-01-08T15:55:25.559Z,99937.00
2023-01-08T15:57:56.009Z,99929.60
2023-01-08T16:00:24.887Z,99937.20
2023-01-08T16:02:55.518Z,99942.00
2023-01-08T16:05:24.512Z,99937.60
2023-01-08T16:07:52.857Z,99933.80
2023-01-08T16:10:21.027Z,99935.60
2023-01-08T16:12:48.963Z,99941.20
2023-01-08T16:15:17.437Z,99941.00
2023-01-08T16:17:45.762Z,99937.40
2023-01-08T16:20:14.803Z,99934.60
2023-01-08T16:22:43.021Z,99938.80
2023-01-08T16:25:11.719Z,99929.00
2023-01-08T16:27:41.279Z,99933.80
2023-01-08T16:30:17.447Z,99935.60
2023-01-08T16:32:46.950Z,99930.00
2023-01-08T16:35:14.962Z,99923.40
2023-01-08T16:37:43.036Z,99922.40
2023-01-08T16:40:12.174Z,99920.60
2023-01-08T16:42:40.284Z,99916.00
2023-01-08T16:45:11.247Z,99918.00
2023-01-08T16:47:40.160Z,99917.80
2023-01-08T16:50:10.735Z,99914.80
2023-01-08T16:52:39.135Z,99921.80
2023-01-08T16:55:07.802Z,99920.80
2023-01-08T16:57:35.961Z,99918.20
2023-01-08T17:00:12.206Z,99919.40
2023-01-08T17:02:40.546Z,99914.80
2023-01-08T17:05:09.126Z,99918.00
2023-01-08T17:07:37.210Z,99907.60
2023-01-08T17:10:05.971Z,99909.40
2023-01-08T17:12:33.928Z,99909.40
2023-01-08T17:15:02.316Z,99895.60
2023-01-08T17:17:30.299Z,99893.60
2023-01-08T17:19:58.187Z,99882.00
2023-01-08T17:22:26.065Z,99886.20
2023-01-08T17:24:53.989Z,99888.00
2023-01-08T17:27:22.048Z,99884.80
2023-01-08T17:29:49.839Z,99876.00
2023-01-08T17:32:17.727Z,99876.80
2023-01-08T17:34:45.596Z,99885.60
2023-01-08T17:37:13.479Z,99877.80
2023-01-08T17:39:41.333Z,99878.60
2023-01-08T17:42:28.339Z,99878.40
2023-01-08T17:45:03.082Z,99901.00
2023-01-08T17:47:32.100Z,99893.80
2023-01-08T17:50:02.283Z,99865.20
2023-01-08T17:52:30.318Z,99868.20
2023-01-08T17:54:58.267Z,99887.60
2023-01-08T17:57:26.665Z,99884.40
2023-01-08T17:59:54.538Z,99888.00
2023-01-08T18:02:22.770Z,99882.60
2023-01-08T18:04:53.372Z,99892.00
2023-01-08T18:07:21.360Z,99891.20
2023-01-08T18:09:52.799Z,99898.00
2023-01-08T18:12:20.673Z,99896.60
2023-01-08T18:14:48.665Z,99897.00
2023-01-08T18:17:16.634Z,99893.20
2023-01-08T18:19:44.528Z,99896.60
2023-01-08T18:22:12.562Z,99897.20
2023-01-08T18:24:40.592Z,99896.00
2023-01-08T18:27:08.902Z,99885.40
2023-01-08T18:29:37.032Z,99881.40
2023-01-08T18:32:05.286Z,99878.20
2023-01-08T18:34:33.457Z,99885.80
2023-01-08T18:37:01.360Z,99879.20
2023-01-08T18:39:31.669Z,99880.00
2023-01-08T18:42:18.803Z,99868.00
2023-01-08T18:44:46.765Z,99872.00
2023-01-08T18:47:15.803Z,99871.80
2023-01-08T18:49:43.833Z,99867.60
2023-01-08T18:52:14.093Z,99864.00
2023-01-08T18:54:42.037Z,99871.20
2023-01-08T18:57:10.013Z,99870.00
2023-01-08T18:59:38.279Z,99876.60
2023-01-08T19:02:06.357Z,99875.00
2023-01-08T19:04:34.440Z,99868.00
2023-01-08T19:07:02.436Z,99865.40
2023-01-08T19:09:30.499Z,99860.40
2023-01-08T19:11:58.477Z,99849.60
2023-01-08T19:14:26.471Z,99854.20
2023-01-08T19:16:55.485Z,99857.40
2023-01-08T19:19:24.962Z,99863.60
2023-01-08T19:21:54.888Z,99862.60
2023-01-08T19:24:24.116Z,99863.00
2023-01-08T19:26:52.352Z,99861.00
2023-01-08T19:29:21.492Z,99872.80
2023-01-08T19:31:55.792Z,99863.20
2023-01-08T19:34:25.363Z,99868.40
2023-01-08T19:36:54.410Z,99858.00
2023-01-08T19:39:23.086Z,99868.00
2023-01-08T19:42:12.243Z,99861.20
2023-01-08T19:44:44.167Z,99851.60
2023-01-08T19:47:13.726Z,99848.80
2023-01-08T19:49:47.839Z,99848.40
2023-01-08T19:52:17.853Z,99850.40
2023-01-08T19:54:48.239Z,99842.00
2023-01-08T19:57:18.074Z,99839.40
2023-01-08T19:59:47.468Z,99840.60
2023-01-08T20:02:17.153Z,99847.80
2023-01-08T20:04:45.284Z,99837.80
2023-01-08T20:07:14.642Z,99846.60
2023-01-08T20:09:43.605Z,99854.20
2023-01-08T20:12:11.754Z,99855.20
2023-01-08T20:14:40.273Z,99856.00
2023-01-08T20:17:08.906Z,99853.20
2023-01-08T20:19:37.212Z,99841.00
2023-01-08T20:22:05.370Z,99837.80
2023-01-08T20:24:35.160Z,99847.60
2023-01-08T20:27:03.179Z,99850.20
2023-01-08T20:29:32.857Z,99843.20
2023-01-08T20:32:01.595Z,99838.80
2023-01-08T20:34:29.484Z,99833.20
2023-01-08T20:36:57.806Z,99843.40
2023-01-08T20:39:26.364Z,99832.60
2023-01-08T20:42:03.938Z,99831.40
2023-01-08T20:44:33.867Z,99833.20
2023-01-08T20:47:02.501Z,99822.00
2023-01-08T20:49:30.882Z,99823.40
2023-01-08T20:52:00.362Z,99820.80
2023-01-08T20:54:30.372Z,99816.60
2023-01-08T20:57:04.047Z,99816.80
2023-01-08T20:59:32.160Z,99811.00
2023-01-08T21:02:02.055Z,99805.20
2023-01-08T21:04:30.120Z,99797.40
2023-01-08T21:06:58.537Z,99798.80
2023-01-08T21:09:26.810Z,99794.60
2023-01-08T21:11:57.879Z,99794.60
2023-01-08T21:14:28.958Z,99793.40
2023-01-08T21:16:59.858Z,99796.00
2023-01-08T21:19:27.775Z,99800.60
2023-01-08T21:21:55.674Z,99794.80
2023-01-08T21:24:23.574Z,99796.00
2023-01-08T21:26:51.399Z,99790.20
2023-01-08T21:29:21.044Z,99788.20
2023-01-08T21:31:49.317Z,99791.60
2023-01-08T21:34:17.250Z,99783.40
2023-01-08T21:36:45.369Z,99769.60
2023-01-08T21:39:13.503Z,99768.20
2023-01-08T21:42:00.139Z,99766.80
2023-01-08T21:44:48.060Z,99761.20
2023-01-08T21:47:18.564Z,99758.40
2023-01-08T21:49:46.967Z,99765.40
2023-01-08T21:52:33.487Z,99751.40
2023-01-08T21:55:02.282Z,99759.00
2023-01-08T21:57:30.349Z,99751.60
2023-01-08T21:59:58.321Z,99746.20
2023-01-08T22:02:26.353Z,99744.40
2023-01-08T22:04:56.361Z,99741.20
2023-01-08T22:07:26.164Z,99744.40
2023-01-08T22:09:54.709Z,99740.40
2023-01-08T22:12:24.406Z,99740.20
2023-01-08T22:14:56.899Z,99732.20
2023-01-08T22:17:29.325Z,99729.40
2023-01-08T22:19:58.140Z,99714.80
2023-01-08T22:22:25.954Z,99718.60
2023-01-08T22:24:54.950Z,99718.60
2023-01-08T22:27:25.426Z,99712.40
2023-01-08T22:29:54.632Z,99698.40
2023-01-08T22:32:22.884Z,99694.40
2023-01-08T22:34:58.406Z,99698.40
2023-01-08T22:37:26.299Z,99705.20
2023-01-08T22:39:54.295Z,99697.20
2023-01-08T22:42:23.905Z,99697.80
2023-01-08T22:44:51.929Z,99687.80
2023-01-08T22:47:19.795Z,99680.20
2023-01-08T22:49:50.068Z,99682.80
2023-01-08T22:52:17.977Z,99668.80
2023-01-08T22:54:45.842Z,99670.80
2023-01-08T22:57:13.709Z,99667.80
2023-01-08T22:59:41.579Z,99668.40
2023-01-08T23:02:09.441Z,99665.60
2023-01-08T23:04:37.339Z,99666.60
2023-01-08T23:07:05.256Z,99675.20
2023-01-08T23:09:33.054Z,99670.80
2023-01-08T23:12:00.929Z,99664.60
2023-01-08T23:14:28.836Z,99671.20
2023-01-08T23:16:56.657Z,99674.00
2023-01-08T23:19:24.528Z,99678.00
2023-01-08T23:21:52.536Z,99684.00
2023-01-08T23:24:20.348Z,99686.40
2023-01-08T23:26:48.215Z,99690.60
2023-01-08T23:29:16.061Z,99683.20
2023-01-08T23:31:44.386Z,99683.20
2023-01-08T23:34:12.329Z,99678.60
2023-01-08T23:36:41.041Z,99677.80
2023-01-08T23:39:10.482Z,99674.40
2023-01-08T23:41:38.941Z,99674.40
2023-01-08T23:44:12.291Z,99677.20
2023-01-08T23:46:40.315Z,99675.60
2023-01-08T23:49:08.746Z,99669.20
2023-01-08T23:51:37.836Z,99675.00
2023-01-08T23:54:05.792Z,99685.80
2023-01-08T23:56:33.859Z,99682.60
2023-01-08T23:59:02.238Z,99679.20
